createdAt,value
2022-10-15T00:00:25.988Z,70.25
2022-10-15T00:03:25.996Z,70.03
2022-10-15T00:04:25.963Z,70.03
2022-10-15T00:05:25.988Z,70.24
2022-10-15T00:06:26.012Z,70.06
2022-10-15T00:07:26.369Z,70.02
2022-10-15T00:08:26.006Z,70.02
2022-10-15T00:09:26.013Z,70.02
2022-10-15T00:11:25.998Z,69.94
2022-10-15T00:13:26.019Z,69.89
2022-10-15T00:14:26.001Z,69.94
2022-10-15T00:15:26.019Z,69.95
2022-10-15T00:16:26.032Z,70.36
2022-10-15T00:17:26.366Z,70.36
2022-10-15T00:18:26.027Z,71.07
2022-10-15T00:19:26.020Z,71.07
2022-10-15T00:20:26.000Z,71.66
2022-10-15T00:21:26.004Z,71.89
2022-10-15T00:22:26.263Z,71.82
2022-10-15T00:23:26.019Z,71.69
2022-10-15T00:24:26.040Z,71.65
2022-10-15T00:25:26.028Z,71.45
2022-10-15T00:26:26.036Z,71.46
2022-10-15T00:27:26.042Z,71.29
2022-10-15T00:28:28.502Z,71.28
2022-10-15T00:29:26.048Z,70.87
2022-10-15T00:30:26.040Z,70.87
2022-10-15T00:31:26.044Z,71.21
2022-10-15T00:33:26.047Z,71.17
2022-10-15T00:34:26.042Z,71.27
2022-10-15T00:35:26.076Z,71.61
2022-10-15T00:36:26.048Z,71.76
2022-10-15T00:37:26.061Z,71.61
2022-10-15T00:38:26.068Z,71.35
2022-10-15T00:39:26.087Z,70.85
2022-10-15T00:40:26.059Z,70.60
2022-10-15T00:41:26.066Z,70.65
2022-10-15T00:42:26.263Z,71.13
2022-10-15T00:43:26.062Z,71.22
2022-10-15T00:44:26.095Z,71.21
2022-10-15T00:45:26.064Z,70.96
2022-10-15T00:46:26.098Z,70.76
2022-10-15T00:47:26.104Z,70.77
2022-10-15T00:48:26.097Z,70.73
2022-10-15T00:49:26.094Z,70.47
2022-10-15T00:51:26.113Z,70.33
2022-10-15T00:52:26.514Z,70.48
2022-10-15T00:54:26.096Z,70.32
2022-10-15T00:55:26.113Z,70.39
2022-10-15T00:56:26.120Z,70.35
2022-10-15T00:57:26.107Z,70.34
2022-10-15T00:58:26.121Z,70.40
2022-10-15T00:59:26.131Z,70.49
2022-10-15T01:00:26.130Z,70.44
2022-10-15T01:01:26.245Z,70.17
2022-10-15T01:02:26.613Z,70.12
2022-10-15T01:04:26.121Z,70.36
2022-10-15T01:05:26.129Z,70.37
2022-10-15T01:06:26.150Z,70.33
2022-10-15T01:07:26.127Z,70.20
2022-10-15T01:08:26.132Z,69.98
2022-10-15T01:09:26.124Z,69.94
2022-10-15T01:10:26.126Z,69.92
2022-10-15T01:11:26.129Z,69.82
2022-10-15T01:12:26.334Z,69.78
2022-10-15T01:13:26.134Z,69.91
2022-10-15T01:14:26.160Z,69.97
2022-10-15T01:15:26.162Z,70.16
2022-10-15T01:16:26.190Z,70.23
2022-10-15T01:17:26.627Z,69.99
2022-10-15T01:18:26.162Z,69.89
2022-10-15T01:19:26.164Z,69.84
2022-10-15T01:20:26.293Z,69.69
2022-10-15T01:21:26.166Z,69.73
2022-10-15T01:23:26.189Z,69.68
2022-10-15T01:25:26.163Z,69.63
2022-10-15T01:27:26.559Z,69.56
2022-10-15T01:28:26.259Z,69.55
2022-10-15T01:29:26.214Z,69.61
2022-10-15T01:30:26.203Z,69.32
2022-10-15T01:31:26.202Z,69.61
2022-10-15T01:32:26.205Z,69.92
2022-10-15T01:33:26.210Z,70.23
2022-10-15T01:34:26.215Z,70.33
2022-10-15T01:36:26.200Z,70.04
2022-10-15T01:38:26.247Z,70.52
2022-10-15T01:39:26.226Z,70.52
2022-10-15T01:40:26.228Z,70.49
2022-10-15T01:41:26.250Z,70.42
2022-10-15T01:42:26.244Z,70.53
2022-10-15T01:43:26.214Z,70.38
2022-10-15T01:44:26.239Z,70.45
2022-10-15T01:45:26.242Z,70.26
2022-10-15T01:46:26.236Z,70.41
2022-10-15T01:47:26.478Z,70.41
2022-10-15T01:48:26.247Z,70.32
2022-10-15T01:50:26.256Z,70.04
2022-10-15T01:51:26.243Z,70.14
2022-10-15T01:52:26.342Z,70.24
2022-10-15T01:53:26.586Z,70.11
2022-10-15T01:55:26.268Z,70.72
2022-10-15T01:56:26.257Z,70.69
2022-10-15T01:57:26.471Z,70.97
2022-10-15T01:58:26.311Z,70.94
2022-10-15T01:59:26.252Z,70.95
2022-10-15T02:00:26.288Z,70.57
2022-10-15T02:01:26.439Z,70.99
2022-10-15T02:02:26.696Z,71.21
2022-10-15T02:03:26.272Z,70.93
2022-10-15T02:04:26.265Z,70.86
2022-10-15T02:05:26.298Z,70.65
2022-10-15T02:06:26.299Z,70.53
2022-10-15T02:07:26.287Z,70.52
2022-10-15T02:08:26.285Z,70.31
2022-10-15T02:09:26.306Z,70.20
2022-10-15T02:10:26.289Z,70.59
2022-10-15T02:11:26.283Z,70.44
2022-10-15T02:12:26.604Z,70.21
2022-10-15T02:13:26.299Z,70.47
2022-10-15T02:14:26.296Z,70.55
2022-10-15T02:15:26.300Z,70.43
2022-10-15T02:16:26.323Z,70.41
2022-10-15T02:17:26.318Z,70.41
2022-10-15T02:18:26.323Z,70.44
2022-10-15T02:19:26.308Z,70.36
2022-10-15T02:20:26.431Z,69.88
2022-10-15T02:21:26.329Z,70.20
2022-10-15T02:22:26.594Z,70.23
2022-10-15T02:23:26.335Z,70.34
2022-10-15T02:24:26.316Z,71.04
2022-10-15T02:25:26.346Z,70.77
2022-10-15T02:26:26.362Z,71.03
2022-10-15T02:27:26.329Z,71.23
2022-10-15T02:28:26.388Z,71.21
2022-10-15T02:29:26.356Z,71.13
2022-10-15T02:30:26.358Z,71.15
2022-10-15T02:31:26.366Z,70.84
2022-10-15T02:32:26.868Z,70.78
2022-10-15T02:34:26.369Z,70.28
2022-10-15T02:35:26.362Z,70.20
2022-10-15T02:36:26.377Z,70.52
2022-10-15T02:37:26.363Z,71.14
2022-10-15T02:38:26.374Z,71.07
2022-10-15T02:39:26.372Z,71.30
2022-10-15T02:40:26.360Z,71.05
2022-10-15T02:41:26.381Z,70.87
2022-10-15T02:42:26.620Z,70.96
2022-10-15T02:43:26.383Z,70.93
2022-10-15T02:44:26.367Z,70.55
2022-10-15T02:46:26.385Z,70.27
2022-10-15T02:47:26.405Z,70.25
2022-10-15T02:48:26.412Z,69.82
2022-10-15T02:49:26.404Z,69.82
2022-10-15T02:50:26.417Z,69.54
2022-10-15T02:51:26.410Z,69.47
2022-10-15T02:52:26.622Z,69.37
2022-10-15T02:53:26.411Z,69.28
2022-10-15T02:54:26.428Z,69.05
2022-10-15T02:55:26.393Z,69.03
2022-10-15T02:56:26.527Z,69.11
2022-10-15T02:57:26.863Z,68.69
2022-10-15T02:58:26.434Z,68.69
2022-10-15T02:59:26.398Z,68.16
2022-10-15T03:00:26.427Z,68.44
2022-10-15T03:01:26.493Z,68.62
2022-10-15T03:02:26.434Z,68.83
2022-10-15T03:03:26.424Z,68.66
2022-10-15T03:04:26.444Z,68.34
2022-10-15T03:06:26.470Z,68.79
2022-10-15T03:08:26.472Z,68.88
2022-10-15T03:09:26.444Z,68.88
2022-10-15T03:11:26.472Z,68.48
2022-10-15T03:12:26.468Z,68.41
2022-10-15T03:13:26.468Z,68.91
2022-10-15T03:14:26.536Z,68.97
2022-10-15T03:15:26.480Z,69.28
2022-10-15T03:16:26.485Z,68.96
2022-10-15T03:17:26.565Z,68.82
2022-10-15T03:18:26.489Z,68.56
2022-10-15T03:19:26.477Z,68.54
2022-10-15T03:20:26.484Z,68.79
2022-10-15T03:21:26.483Z,68.55
2022-10-15T03:22:26.475Z,68.62
2022-10-15T03:23:26.546Z,68.49
2022-10-15T03:24:26.485Z,68.48
2022-10-15T03:26:26.526Z,68.24
2022-10-15T03:27:26.642Z,68.51
2022-10-15T03:28:26.537Z,68.59
2022-10-15T03:29:26.507Z,68.44
2022-10-15T03:30:26.511Z,68.39
2022-10-15T03:31:27.731Z,68.52
2022-10-15T03:32:26.559Z,68.29
2022-10-15T03:33:26.505Z,67.92
2022-10-15T03:34:26.515Z,67.97
2022-10-15T03:35:26.519Z,68.18
2022-10-15T03:36:26.523Z,68.23
2022-10-15T03:37:26.584Z,68.38
2022-10-15T03:38:26.506Z,68.36
2022-10-15T03:39:26.527Z,68.58
2022-10-15T03:41:26.535Z,68.40
2022-10-15T03:42:26.695Z,68.38
2022-10-15T03:43:26.548Z,68.08
2022-10-15T03:45:26.531Z,67.75
2022-10-15T03:47:26.535Z,68.30
2022-10-15T03:48:26.542Z,68.35
2022-10-15T03:49:26.547Z,68.30
2022-10-15T03:50:26.567Z,68.00
2022-10-15T03:51:27.969Z,67.94
2022-10-15T03:52:26.817Z,67.65
2022-10-15T03:53:26.541Z,67.84
2022-10-15T03:54:26.565Z,67.68
2022-10-15T03:55:26.548Z,67.66
2022-10-15T03:56:26.596Z,67.68
2022-10-15T03:57:26.562Z,67.68
2022-10-15T03:58:26.572Z,67.56
2022-10-15T03:59:26.598Z,67.55
2022-10-15T04:00:26.579Z,67.22
2022-10-15T04:01:26.625Z,67.10
2022-10-15T04:02:26.880Z,67.29
2022-10-15T04:04:26.583Z,67.39
2022-10-15T04:05:26.574Z,67.53
2022-10-15T04:06:26.591Z,67.21
2022-10-15T04:07:26.591Z,67.22
2022-10-15T04:08:26.602Z,66.96
2022-10-15T04:09:26.614Z,67.59
2022-10-15T04:11:26.620Z,67.46
2022-10-15T04:12:26.861Z,67.29
2022-10-15T04:13:26.627Z,67.18
2022-10-15T04:14:26.625Z,67.38
2022-10-15T04:15:26.608Z,67.06
2022-10-15T04:17:26.616Z,67.48
2022-10-15T04:18:26.617Z,67.39
2022-10-15T04:19:26.640Z,67.07
2022-10-15T04:20:26.620Z,66.83
2022-10-15T04:21:26.643Z,66.79
2022-10-15T04:22:26.911Z,66.80
2022-10-15T04:23:26.644Z,66.49
2022-10-15T04:24:26.638Z,66.50
2022-10-15T04:25:26.652Z,66.21
2022-10-15T04:26:26.650Z,66.26
2022-10-15T04:28:26.689Z,66.13
2022-10-15T04:31:26.774Z,65.69
2022-10-15T04:32:26.749Z,65.96
2022-10-15T04:34:26.668Z,65.72
2022-10-15T04:35:26.665Z,65.88
2022-10-15T04:36:26.686Z,66.17
2022-10-15T04:37:26.801Z,66.29
2022-10-15T04:38:26.670Z,66.29
2022-10-15T04:39:26.675Z,66.23
2022-10-15T04:40:26.660Z,66.17
2022-10-15T04:41:26.681Z,66.04
2022-10-15T04:42:26.709Z,65.98
2022-10-15T04:43:26.672Z,65.93
2022-10-15T04:44:26.672Z,65.70
2022-10-15T04:45:26.673Z,65.61
2022-10-15T04:46:27.778Z,65.68
2022-10-15T04:47:26.885Z,65.62
2022-10-15T04:48:26.713Z,65.39
2022-10-15T04:49:26.714Z,65.51
2022-10-15T04:50:26.701Z,65.28
2022-10-15T04:51:26.708Z,65.20
2022-10-15T04:52:26.693Z,65.20
2022-10-15T04:53:26.713Z,65.33
2022-10-15T04:55:26.711Z,65.41
2022-10-15T04:56:26.711Z,65.02
2022-10-15T04:57:26.950Z,65.17
2022-10-15T04:58:26.719Z,64.98
2022-10-15T05:00:26.730Z,65.48
2022-10-15T05:01:26.714Z,65.35
2022-10-15T05:02:26.851Z,65.08
2022-10-15T05:03:26.810Z,65.42
2022-10-15T05:04:26.747Z,65.35
2022-10-15T05:05:26.747Z,65.53
2022-10-15T05:06:26.738Z,65.22
2022-10-15T05:07:27.096Z,64.78
2022-10-15T05:08:26.780Z,64.87
2022-10-15T05:09:26.746Z,64.87
2022-10-15T05:10:26.737Z,65.24
2022-10-15T05:11:26.764Z,65.40
2022-10-15T05:12:26.788Z,65.71
2022-10-15T05:14:26.784Z,65.74
2022-10-15T05:15:26.781Z,65.79
2022-10-15T05:16:26.766Z,65.76
2022-10-15T05:17:26.913Z,65.55
2022-10-15T05:18:26.770Z,65.37
2022-10-15T05:19:26.784Z,65.36
2022-10-15T05:20:26.785Z,65.29
2022-10-15T05:21:26.762Z,65.11
2022-10-15T05:22:26.964Z,65.12
2022-10-15T05:23:26.783Z,64.97
2022-10-15T05:24:26.776Z,64.96
2022-10-15T05:25:26.807Z,64.59
2022-10-15T05:26:26.794Z,64.73
2022-10-15T05:30:26.782Z,65.14
2022-10-15T05:31:26.807Z,64.79
2022-10-15T05:32:26.829Z,64.88
2022-10-15T05:33:26.825Z,64.94
2022-10-15T05:34:26.832Z,64.90
2022-10-15T05:35:26.828Z,64.75
2022-10-15T05:36:26.809Z,64.84
2022-10-15T05:37:26.835Z,64.88
2022-10-15T05:38:26.825Z,64.79
2022-10-15T05:40:26.850Z,64.80
2022-10-15T05:41:26.842Z,64.68
2022-10-15T05:42:26.820Z,64.52
2022-10-15T05:43:26.839Z,64.44
2022-10-15T05:45:26.848Z,64.46
2022-10-15T05:46:26.843Z,64.56
2022-10-15T05:49:26.874Z,64.47
2022-10-15T05:50:26.859Z,64.54
2022-10-15T05:51:26.868Z,64.49
2022-10-15T05:52:27.153Z,64.68
2022-10-15T05:56:26.881Z,64.66
2022-10-15T05:59:26.899Z,64.45
2022-10-15T06:00:26.858Z,64.29
2022-10-15T06:02:27.434Z,64.46
2022-10-15T06:04:27.921Z,64.48
2022-10-15T06:05:26.905Z,64.23
2022-10-15T06:07:26.880Z,64.82
2022-10-15T06:08:26.930Z,64.76
2022-10-15T06:09:27.891Z,64.76
2022-10-15T06:10:26.921Z,64.90
2022-10-15T06:11:26.912Z,64.64
2022-10-15T06:12:26.909Z,64.28
2022-10-15T06:14:26.929Z,64.17
2022-10-15T06:15:26.915Z,64.22
2022-10-15T06:16:26.953Z,64.31
2022-10-15T06:17:27.003Z,64.16
2022-10-15T06:19:26.945Z,64.18
2022-10-15T06:21:26.956Z,64.08
2022-10-15T06:22:27.059Z,64.03
2022-10-15T06:23:26.934Z,64.03
2022-10-15T06:24:26.926Z,64.23
2022-10-15T06:25:26.931Z,63.99
2022-10-15T06:27:26.963Z,64.11
2022-10-15T06:29:26.958Z,64.01
2022-10-15T06:30:27.058Z,63.63
2022-10-15T06:31:26.942Z,64.24
2022-10-15T06:32:26.955Z,64.38
2022-10-15T06:33:26.972Z,64.32
2022-10-15T06:34:26.948Z,64.24
2022-10-15T06:35:26.969Z,64.06
2022-10-15T06:36:26.957Z,64.10
2022-10-15T06:37:27.076Z,63.95
2022-10-15T06:38:27.557Z,63.93
2022-10-15T06:39:26.997Z,63.90
2022-10-15T06:40:27.006Z,63.94
2022-10-15T06:41:27.001Z,63.80
2022-10-15T06:42:27.006Z,63.75
2022-10-15T06:44:26.995Z,63.88
2022-10-15T06:45:27.018Z,64.21
2022-10-15T06:46:26.989Z,64.11
2022-10-15T06:47:27.184Z,64.29
2022-10-15T06:48:27.002Z,64.08
2022-10-15T06:49:27.002Z,63.91
2022-10-15T06:50:26.996Z,63.83
2022-10-15T06:51:27.016Z,63.86
2022-10-15T06:52:26.990Z,63.92
2022-10-15T06:53:27.033Z,63.84
2022-10-15T06:54:27.024Z,63.42
2022-10-15T06:55:27.010Z,63.37
2022-10-15T06:56:27.007Z,63.52
2022-10-15T06:57:27.173Z,63.17
2022-10-15T06:58:27.028Z,63.73
2022-10-15T06:59:27.029Z,63.73
2022-10-15T07:00:27.213Z,63.76
2022-10-15T07:01:27.045Z,63.73
2022-10-15T07:02:27.186Z,63.67
2022-10-15T07:03:27.054Z,63.51
2022-10-15T07:05:27.069Z,63.54
2022-10-15T07:06:27.050Z,63.54
2022-10-15T07:07:27.043Z,63.76
2022-10-15T07:08:27.059Z,63.66
2022-10-15T07:09:27.062Z,63.56
2022-10-15T07:10:27.180Z,63.71
2022-10-15T07:11:27.093Z,63.56
2022-10-15T07:12:27.248Z,63.38
2022-10-15T07:13:27.091Z,63.57
2022-10-15T07:14:27.073Z,63.40
2022-10-15T07:15:27.073Z,63.30
2022-10-15T07:16:27.076Z,62.95
2022-10-15T07:17:27.091Z,62.99
2022-10-15T07:18:27.073Z,63.02
2022-10-15T07:19:27.077Z,63.02
2022-10-15T07:20:27.121Z,62.77
2022-10-15T07:21:27.082Z,61.91
2022-10-15T07:22:27.197Z,61.98
2022-10-15T07:23:27.966Z,61.98
2022-10-15T07:24:27.098Z,61.11
2022-10-15T07:25:27.102Z,61.28
2022-10-15T07:26:27.130Z,60.53
2022-10-15T07:27:27.125Z,59.74
2022-10-15T07:30:27.106Z,59.75
2022-10-15T07:31:27.144Z,60.24
2022-10-15T07:32:27.137Z,60.24
2022-10-15T07:33:27.117Z,60.28
2022-10-15T07:34:27.116Z,59.68
2022-10-15T07:35:27.123Z,59.22
2022-10-15T07:36:27.129Z,59.19
2022-10-15T07:37:27.148Z,58.83
2022-10-15T07:38:27.143Z,58.84
2022-10-15T07:39:27.150Z,58.35
2022-10-15T07:40:27.150Z,58.02
2022-10-15T07:41:27.144Z,58.65
2022-10-15T07:43:27.192Z,58.40
2022-10-15T07:44:27.138Z,58.13
2022-10-15T07:45:27.171Z,58.72
2022-10-15T07:46:27.130Z,58.64
2022-10-15T07:47:27.261Z,58.23
2022-10-15T07:48:27.161Z,57.91
2022-10-15T07:49:27.196Z,57.98
2022-10-15T07:50:29.328Z,57.98
2022-10-15T07:51:27.190Z,57.28
2022-10-15T07:52:27.445Z,56.14
2022-10-15T07:53:27.168Z,55.94
2022-10-15T07:54:27.194Z,56.54
2022-10-15T07:55:27.162Z,56.54
2022-10-15T07:56:27.189Z,56.06
2022-10-15T07:57:27.185Z,56.06
2022-10-15T07:58:27.203Z,55.77
2022-10-15T07:59:27.207Z,55.93
2022-10-15T08:00:27.246Z,56.28
2022-10-15T08:01:27.200Z,56.18
2022-10-15T08:02:27.236Z,56.20
2022-10-15T08:03:27.184Z,56.20
2022-10-15T08:04:27.194Z,55.95
2022-10-15T08:05:27.233Z,55.65
2022-10-15T08:06:27.211Z,55.65
2022-10-15T08:07:27.214Z,55.20
2022-10-15T08:08:27.223Z,53.86
2022-10-15T08:09:27.220Z,52.03
2022-10-15T08:10:27.227Z,51.46
2022-10-15T08:11:27.240Z,51.46
2022-10-15T08:12:27.342Z,48.96
2022-10-15T08:13:27.219Z,47.84
2022-10-15T08:14:27.245Z,48.53
2022-10-15T08:15:27.226Z,48.04
2022-10-15T08:16:27.257Z,48.31
2022-10-15T08:17:27.229Z,48.17
2022-10-15T08:19:27.269Z,48.23
2022-10-15T08:20:27.248Z,47.86
2022-10-15T08:21:27.252Z,47.86
2022-10-15T08:22:27.248Z,47.75
2022-10-15T08:23:27.248Z,47.19
2022-10-15T08:24:27.241Z,47.85
2022-10-15T08:25:27.253Z,47.50
2022-10-15T08:26:27.256Z,47.50
2022-10-15T08:27:27.264Z,48.44
2022-10-15T08:28:27.323Z,50.45
2022-10-15T08:29:27.287Z,51.92
2022-10-15T08:30:27.253Z,51.92
2022-10-15T08:31:27.274Z,53.69
2022-10-15T08:32:27.275Z,54.33
2022-10-15T08:33:27.284Z,54.10
2022-10-15T08:34:27.271Z,54.10
2022-10-15T08:35:27.286Z,54.17
2022-10-15T08:36:27.288Z,54.09
2022-10-15T08:37:27.275Z,54.45
2022-10-15T08:38:27.300Z,54.45
2022-10-15T08:39:27.298Z,54.71
2022-10-15T08:40:27.287Z,55.58
2022-10-15T08:41:27.318Z,55.71
2022-10-15T08:42:27.383Z,55.71
2022-10-15T08:43:27.295Z,55.17
2022-10-15T08:44:27.292Z,55.41
2022-10-15T08:45:27.316Z,55.62
2022-10-15T08:47:27.342Z,55.52
2022-10-15T08:48:27.300Z,55.52
2022-10-15T08:49:27.750Z,55.54
2022-10-15T08:50:27.327Z,55.61
2022-10-15T08:51:27.308Z,55.61
2022-10-15T08:53:27.320Z,55.29
2022-10-15T08:54:27.346Z,54.32
2022-10-15T08:55:27.336Z,54.55
2022-10-15T08:56:27.324Z,54.55
2022-10-15T08:57:27.346Z,54.70
2022-10-15T08:58:27.346Z,54.55
2022-10-15T08:59:27.335Z,54.55
2022-10-15T09:00:27.346Z,54.68
2022-10-15T09:02:27.367Z,54.79
2022-10-15T09:03:27.384Z,54.83
2022-10-15T09:05:27.368Z,54.28
2022-10-15T09:06:27.349Z,54.28
2022-10-15T09:07:27.391Z,53.98
2022-10-15T09:08:27.378Z,53.94
2022-10-15T09:09:27.363Z,53.70
2022-10-15T09:10:27.381Z,53.97
2022-10-15T09:11:27.379Z,53.97
2022-10-15T09:12:27.391Z,53.75
2022-10-15T09:13:27.411Z,53.75
2022-10-15T09:14:27.410Z,54.37
2022-10-15T09:16:27.497Z,54.35
2022-10-15T09:17:27.617Z,54.11
2022-10-15T09:18:27.391Z,54.11
2022-10-15T09:19:27.422Z,54.19
2022-10-15T09:20:27.402Z,53.90
2022-10-15T09:21:27.428Z,53.88
2022-10-15T09:22:27.418Z,53.33
2022-10-15T09:24:27.411Z,53.52
2022-10-15T09:25:29.813Z,53.33
2022-10-15T09:26:27.425Z,53.61
2022-10-15T09:27:27.427Z,53.65
2022-10-15T09:28:27.456Z,53.72
2022-10-15T09:29:27.584Z,53.73
2022-10-15T09:30:27.402Z,53.73
2022-10-15T09:32:27.650Z,53.29
2022-10-15T09:33:27.425Z,53.30
2022-10-15T09:34:27.442Z,53.60
2022-10-15T09:35:27.431Z,53.21
2022-10-15T09:36:27.441Z,53.21
2022-10-15T09:38:27.478Z,53.23
2022-10-15T09:40:27.458Z,53.47
2022-10-15T09:41:27.580Z,53.35
2022-10-15T09:43:27.455Z,53.54
2022-10-15T09:45:27.466Z,53.79
2022-10-15T09:46:27.466Z,53.51
2022-10-15T09:47:27.456Z,53.51
2022-10-15T09:48:27.479Z,53.36
2022-10-15T09:49:29.394Z,53.19
2022-10-15T09:51:27.494Z,53.10
2022-10-15T09:52:27.486Z,53.10
2022-10-15T09:53:28.286Z,53.30
2022-10-15T09:54:27.487Z,53.28
2022-10-15T09:55:27.479Z,53.10
2022-10-15T09:56:27.472Z,53.69
2022-10-15T09:57:27.493Z,54.11
2022-10-15T09:58:27.499Z,54.68
2022-10-15T09:59:27.533Z,54.68
2022-10-15T10:00:27.516Z,54.90
2022-10-15T10:01:27.506Z,54.49
2022-10-15T10:02:28.209Z,54.63
2022-10-15T10:03:27.507Z,54.26
2022-10-15T10:04:27.521Z,54.76
2022-10-15T10:05:27.507Z,54.14
2022-10-15T10:06:27.523Z,53.90
2022-10-15T10:07:27.506Z,53.90
2022-10-15T10:08:27.528Z,54.28
2022-10-15T10:09:27.540Z,53.88
2022-10-15T10:10:27.523Z,54.15
2022-10-15T10:11:27.513Z,54.15
2022-10-15T10:12:27.513Z,54.63
2022-10-15T10:13:29.137Z,54.90
2022-10-15T10:14:27.523Z,54.90
2022-10-15T10:15:27.548Z,55.00
2022-10-15T10:16:27.546Z,55.31
2022-10-15T10:17:27.544Z,54.86
2022-10-15T10:18:27.555Z,54.98
2022-10-15T10:19:27.571Z,55.32
2022-10-15T10:20:27.533Z,55.32
2022-10-15T10:21:27.533Z,55.11
2022-10-15T10:22:27.563Z,54.90
2022-10-15T10:23:27.551Z,56.28
2022-10-15T10:24:27.586Z,56.28
2022-10-15T10:25:27.559Z,56.66
2022-10-15T10:26:27.598Z,56.33
2022-10-15T10:27:27.853Z,56.33
2022-10-15T10:28:27.647Z,57.11
2022-10-15T10:29:34.985Z,57.11
2022-10-15T10:30:27.583Z,57.32
2022-10-15T10:32:27.571Z,58.50
2022-10-15T10:33:27.576Z,58.76
2022-10-15T10:34:27.603Z,58.47
2022-10-15T10:35:27.567Z,57.66
2022-10-15T10:36:27.591Z,57.80
2022-10-15T10:37:27.902Z,57.34
2022-10-15T10:38:27.600Z,56.82
2022-10-15T10:39:27.615Z,56.04
2022-10-15T10:40:27.618Z,56.33
2022-10-15T10:41:27.600Z,56.35
2022-10-15T10:43:27.670Z,56.05
2022-10-15T10:44:27.619Z,55.88
2022-10-15T10:45:27.646Z,55.88
2022-10-15T10:46:27.654Z,55.98
2022-10-15T10:47:27.926Z,55.77
2022-10-15T10:49:27.639Z,55.16
2022-10-15T10:50:29.997Z,55.33
2022-10-15T10:51:27.658Z,54.59
2022-10-15T10:52:27.663Z,54.40
2022-10-15T10:54:27.664Z,54.18
2022-10-15T10:55:27.669Z,53.72
2022-10-15T10:56:27.657Z,54.22
2022-10-15T10:57:27.639Z,54.22
2022-10-15T10:58:27.678Z,54.04
2022-10-15T10:59:27.657Z,53.43
2022-10-15T11:00:27.679Z,53.19
2022-10-15T11:01:27.688Z,53.06
2022-10-15T11:02:27.690Z,53.02
2022-10-15T11:03:27.663Z,53.02
2022-10-15T11:04:27.670Z,53.22
2022-10-15T11:05:27.680Z,52.99
2022-10-15T11:06:27.672Z,52.99
2022-10-15T11:07:27.657Z,52.67
2022-10-15T11:08:27.687Z,51.71
2022-10-15T11:09:27.687Z,51.43
2022-10-15T11:10:27.695Z,51.70
2022-10-15T11:11:27.697Z,52.27
2022-10-15T11:12:27.670Z,52.27
2022-10-15T11:13:30.481Z,52.81
2022-10-15T11:14:27.734Z,52.19
2022-10-15T11:15:27.687Z,51.76
2022-10-15T11:16:27.717Z,52.27
2022-10-15T11:17:27.697Z,52.47
2022-10-15T11:18:27.699Z,52.01
2022-10-15T11:19:54.589Z,52.01
2022-10-15T11:20:41.192Z,51.76
2022-10-15T11:21:27.718Z,52.16
2022-10-15T11:23:27.728Z,51.33
2022-10-15T11:25:27.727Z,50.93
2022-10-15T11:27:30.401Z,50.80
2022-10-15T11:28:27.771Z,50.74
2022-10-15T11:29:27.732Z,50.70
2022-10-15T11:30:27.741Z,50.79
2022-10-15T11:31:27.739Z,50.94
2022-10-15T11:32:28.426Z,50.46
2022-10-15T11:33:27.723Z,50.46
2022-10-15T11:34:27.743Z,50.51
2022-10-15T11:35:48.214Z,50.69
2022-10-15T11:36:27.738Z,50.40
2022-10-15T11:37:27.752Z,50.30
2022-10-15T11:38:27.758Z,49.97
2022-10-15T11:39:27.759Z,49.63
2022-10-15T11:40:27.801Z,49.16
2022-10-15T11:41:27.792Z,49.34
2022-10-15T11:42:27.907Z,48.55
2022-10-15T11:43:27.790Z,49.29
2022-10-15T11:44:27.776Z,49.29
2022-10-15T11:45:27.809Z,49.49
2022-10-15T11:46:27.788Z,49.61
2022-10-15T11:47:27.785Z,49.22
2022-10-15T11:48:27.778Z,49.28
2022-10-15T11:49:27.916Z,48.58
2022-10-15T11:50:27.787Z,49.06
2022-10-15T11:51:27.786Z,48.89
2022-10-15T11:52:27.802Z,48.89
2022-10-15T11:53:27.794Z,48.00
2022-10-15T11:54:27.806Z,48.00
2022-10-15T11:55:27.789Z,48.03
2022-10-15T11:56:27.859Z,47.83
2022-10-15T11:57:27.803Z,47.83
2022-10-15T11:58:27.812Z,46.94
2022-10-15T11:59:27.818Z,47.08
2022-10-15T12:00:27.810Z,46.99
2022-10-15T12:01:27.808Z,46.99
2022-10-15T12:02:27.813Z,46.43
2022-10-15T12:03:27.820Z,46.84
2022-10-15T12:04:32.576Z,46.88
2022-10-15T12:05:27.829Z,46.97
2022-10-15T12:06:27.819Z,46.89
2022-10-15T12:07:27.837Z,46.90
2022-10-15T12:08:27.835Z,45.90
2022-10-15T12:10:27.871Z,46.33
2022-10-15T12:11:27.865Z,46.68
2022-10-15T12:12:27.847Z,46.41
2022-10-15T12:13:27.839Z,46.45
2022-10-15T12:14:27.858Z,46.19
2022-10-15T12:15:27.845Z,45.98
2022-10-15T12:16:27.873Z,45.98
2022-10-15T12:17:27.862Z,45.47
2022-10-15T12:18:27.834Z,45.47
2022-10-15T12:19:27.863Z,45.99
2022-10-15T12:20:27.858Z,46.64
2022-10-15T12:21:27.856Z,46.64
2022-10-15T12:23:27.897Z,46.38
2022-10-15T12:24:27.857Z,46.48
2022-10-15T12:25:27.886Z,46.48
2022-10-15T12:26:27.902Z,46.99
2022-10-15T12:27:28.094Z,46.79
2022-10-15T12:28:27.930Z,46.79
2022-10-15T12:29:27.900Z,47.00
2022-10-15T12:30:27.897Z,46.90
2022-10-15T12:32:27.912Z,46.79
2022-10-15T12:33:27.891Z,46.29
2022-10-15T12:34:27.884Z,46.29
2022-10-15T12:35:27.901Z,46.88
2022-10-15T12:36:27.914Z,46.81
2022-10-15T12:37:27.902Z,47.02
2022-10-15T12:38:27.912Z,47.09
2022-10-15T12:39:47.585Z,47.17
2022-10-15T12:40:27.901Z,47.39
2022-10-15T12:41:30.759Z,47.58
2022-10-15T12:42:27.901Z,47.58
2022-10-15T12:43:27.990Z,48.04
2022-10-15T12:44:27.928Z,48.04
2022-10-15T12:45:27.936Z,47.32
2022-10-15T12:46:29.970Z,47.74
2022-10-15T12:47:27.936Z,47.74
2022-10-15T12:48:27.922Z,47.81
2022-10-15T12:49:27.938Z,47.72
2022-10-15T12:50:27.968Z,47.50
2022-10-15T12:53:28.010Z,47.93
2022-10-15T12:54:27.954Z,47.93
2022-10-15T12:55:27.964Z,48.02
2022-10-15T12:56:27.966Z,47.90
2022-10-15T12:57:27.962Z,47.90
2022-10-15T12:58:27.950Z,48.04
2022-10-15T12:59:28.006Z,48.56
2022-10-15T13:00:27.964Z,48.56
2022-10-15T13:01:28.099Z,48.89
2022-10-15T13:02:28.042Z,49.05
2022-10-15T13:03:27.957Z,49.11
2022-10-15T13:04:27.967Z,49.37
2022-10-15T13:05:27.990Z,49.47
2022-10-15T13:07:27.978Z,49.90
2022-10-15T13:08:27.983Z,50.40
2022-10-15T13:09:28.000Z,50.40
2022-10-15T13:10:28.013Z,50.16
2022-10-15T13:11:27.992Z,50.17
2022-10-15T13:12:28.079Z,50.17
2022-10-15T13:13:27.997Z,50.40
2022-10-15T13:14:27.997Z,50.32
2022-10-15T13:15:28.025Z,50.11
2022-10-15T13:16:28.013Z,50.10
2022-10-15T13:17:28.014Z,50.10
2022-10-15T13:19:28.036Z,50.99
2022-10-15T13:20:28.045Z,51.40
2022-10-15T13:21:28.019Z,51.77
2022-10-15T13:22:28.139Z,51.77
2022-10-15T13:23:31.185Z,51.96
2022-10-15T13:24:28.053Z,52.71
2022-10-15T13:25:28.022Z,52.95
2022-10-15T13:26:28.033Z,52.71
2022-10-15T13:27:28.041Z,52.44
2022-10-15T13:28:28.103Z,52.40
2022-10-15T13:29:28.045Z,52.50
2022-10-15T13:30:28.058Z,52.49
2022-10-15T13:31:30.417Z,52.49
2022-10-15T13:32:28.043Z,52.23
2022-10-15T13:33:28.063Z,51.51
2022-10-15T13:34:28.070Z,51.51
2022-10-15T13:35:28.051Z,51.16
2022-10-15T13:36:28.044Z,50.85
2022-10-15T13:37:28.046Z,50.85
2022-10-15T13:38:28.066Z,50.58
2022-10-15T13:39:28.131Z,50.88
2022-10-15T13:40:28.081Z,51.78
2022-10-15T13:41:28.063Z,51.78
2022-10-15T13:42:28.063Z,52.16
2022-10-15T13:43:28.078Z,52.16
2022-10-15T13:44:28.069Z,52.46
2022-10-15T13:45:28.079Z,52.36
2022-10-15T13:46:28.097Z,52.22
2022-10-15T13:47:28.090Z,52.22
2022-10-15T13:48:28.125Z,52.01
2022-10-15T13:49:28.968Z,52.01
2022-10-15T13:50:28.075Z,52.19
2022-10-15T13:51:28.086Z,52.52
2022-10-15T13:52:28.099Z,52.55
2022-10-15T13:53:28.094Z,51.65
2022-10-15T13:54:28.122Z,51.78
2022-10-15T13:55:31.217Z,51.96
2022-10-15T13:56:28.111Z,51.96
2022-10-15T13:57:28.119Z,51.94
2022-10-15T13:58:28.110Z,51.82
2022-10-15T13:59:28.144Z,51.02
2022-10-15T14:00:28.198Z,51.13
2022-10-15T14:01:28.118Z,51.13
2022-10-15T14:02:28.128Z,50.91
2022-10-15T14:03:28.145Z,51.50
2022-10-15T14:05:28.139Z,50.96
2022-10-15T14:06:28.163Z,51.21
2022-10-15T14:07:28.338Z,51.17
2022-10-15T14:08:28.139Z,51.17
2022-10-15T14:09:28.142Z,51.17
2022-10-15T14:10:28.155Z,51.03
2022-10-15T14:11:28.142Z,50.85
2022-10-15T14:12:28.145Z,50.57
2022-10-15T14:13:28.143Z,50.57
2022-10-15T14:14:28.175Z,50.71
2022-10-15T14:15:28.164Z,50.71
2022-10-15T14:17:28.448Z,50.20
2022-10-15T14:18:28.159Z,50.20
2022-10-15T14:19:28.185Z,51.03
2022-10-15T14:20:28.359Z,51.03